sensor_id;sensor_type;location;lat;lon;timestamp;P1;durP1;ratioP1;P2;durP2;ratioP2
21000;SDS011;10658;50.920;12.238;2023-01-06T00:00:19;9.95;;;5.22;;
21000;SDS011;10658;50.920;12.238;2023-01-06T00:04:21;9.75;;;4.20;;
21000;SDS011;10658;50.920;12.238;2023-01-06T00:08:22;8.73;;;3.85;;
21000;SDS011;10658;50.920;12.238;2023-01-06T00:12:23;12.93;;;4.45;;
21000;SDS011;10658;50.920;12.238;2023-01-06T00:16:25;11.75;;;3.55;;
21000;SDS011;10658;50.920;12.238;2023-01-06T00:20:27;10.98;;;3.88;;
21000;SDS011;10658;50.920;12.238;2023-01-06T00:24:29;7.30;;;3.40;;
21000;SDS011;10658;50.920;12.238;2023-01-06T00:28:31;11.35;;;3.60;;
21000;SDS011;10658;50.920;12.238;2023-01-06T00:32:32;10.43;;;3.85;;
21000;SDS011;10658;50.920;12.238;2023-01-06T00:36:35;12.20;;;3.42;;
21000;SDS011;10658;50.920;12.238;2023-01-06T00:40:37;6.00;;;3.35;;
21000;SDS011;10658;50.920;12.238;2023-01-06T00:44:39;11.10;;;3.35;;
21000;SDS011;10658;50.920;12.238;2023-01-06T00:48:40;10.38;;;3.30;;
21000;SDS011;10658;50.920;12.238;2023-01-06T00:52:42;8.02;;;3.35;;
21000;SDS011;10658;50.920;12.238;2023-01-06T00:56:45;6.35;;;3.28;;
21000;SDS011;10658;50.920;12.238;2023-01-06T01:00:47;11.02;;;3.53;;
21000;SDS011;10658;50.920;12.238;2023-01-06T01:04:48;12.32;;;3.72;;
21000;SDS011;10658;50.920;12.238;2023-01-06T01:08:53;7.63;;;2.80;;
21000;SDS011;10658;50.920;12.238;2023-01-06T01:12:56;8.18;;;3.25;;
21000;SDS011;10658;50.920;12.238;2023-01-06T01:16:57;8.10;;;3.45;;
21000;SDS011;10658;50.920;12.238;2023-01-06T01:20:59;11.95;;;3.10;;
21000;SDS011;10658;50.920;12.238;2023-01-06T01:25:01;15.27;;;3.28;;
21000;SDS011;10658;50.920;12.238;2023-01-06T01:29:02;8.10;;;2.90;;
21000;SDS011;10658;50.920;12.238;2023-01-06T01:33:04;11.93;;;2.97;;
21000;SDS011;10658;50.920;12.238;2023-01-06T01:37:05;6.75;;;3.25;;
21000;SDS011;10658;50.920;12.238;2023-01-06T01:41:07;10.32;;;2.97;;
21000;SDS011;10658;50.920;12.238;2023-01-06T01:49:24;7.65;;;2.50;;
21000;SDS011;10658;50.920;12.238;2023-01-06T01:53:38;10.43;;;2.85;;
21000;SDS011;10658;50.920;12.238;2023-01-06T01:57:53;12.32;;;2.83;;
21000;SDS011;10658;50.920;12.238;2023-01-06T02:01:57;8.88;;;2.58;;
21000;SDS011;10658;50.920;12.238;2023-01-06T02:06:00;5.72;;;2.80;;
21000;SDS011;10658;50.920;12.238;2023-01-06T02:10:12;5.85;;;2.80;;
21000;SDS011;10658;50.920;12.238;2023-01-06T02:14:18;5.93;;;2.30;;
21000;SDS011;10658;50.920;12.238;2023-01-06T02:45:02;6.75;;;2.10;;
21000;SDS011;10658;50.920;12.238;2023-01-06T02:49:14;3.25;;;1.80;;
21000;SDS011;10658;50.920;12.238;2023-01-06T02:53:47;2.75;;;1.33;;
21000;SDS011;10658;50.920;12.238;2023-01-06T02:58:08;8.23;;;1.73;;
21000;SDS011;10658;50.920;12.238;2023-01-06T03:02:23;5.90;;;1.52;;
21000;SDS011;10658;50.920;12.238;2023-01-06T03:06:30;2.03;;;1.38;;
21000;SDS011;10658;50.920;12.238;2023-01-06T03:10:36;5.03;;;1.70;;
21000;SDS011;10658;50.920;12.238;2023-01-06T03:14:44;2.97;;;1.50;;
21000;SDS011;10658;50.920;12.238;2023-01-06T03:18:49;4.55;;;1.20;;
21000;SDS011;10658;50.920;12.238;2023-01-06T03:22:57;3.92;;;1.65;;
21000;SDS011;10658;50.920;12.238;2023-01-06T03:26:59;2.63;;;1.70;;
21000;SDS011;10658;50.920;12.238;2023-01-06T03:48:44;2.72;;;1.38;;
21000;SDS011;10658;50.920;12.238;2023-01-06T03:52:57;2.55;;;1.48;;
21000;SDS011;10658;50.920;12.238;2023-01-06T04:01:26;2.70;;;1.38;;
21000;SDS011;10658;50.920;12.238;2023-01-06T04:05:30;2.53;;;1.65;;
21000;SDS011;10658;50.920;12.238;2023-01-06T04:09:36;2.83;;;1.98;;
21000;SDS011;10658;50.920;12.238;2023-01-06T04:13:38;2.38;;;1.73;;
21000;SDS011;10658;50.920;12.238;2023-01-06T04:17:40;4.30;;;2.42;;
21000;SDS011;10658;50.920;12.238;2023-01-06T04:21:43;3.50;;;2.35;;
21000;SDS011;10658;50.920;12.238;2023-01-06T04:25:45;2.92;;;1.73;;
21000;SDS011;10658;50.920;12.238;2023-01-06T04:30:00;2.78;;;1.88;;
21000;SDS011;10658;50.920;12.238;2023-01-06T04:34:04;5.80;;;2.20;;
21000;SDS011;10658;50.920;12.238;2023-01-06T04:38:05;4.13;;;2.25;;
21000;SDS011;10658;50.920;12.238;2023-01-06T04:42:06;2.95;;;1.85;;
21000;SDS011;10658;50.920;12.238;2023-01-06T04:46:08;2.20;;;1.77;;
21000;SDS011;10658;50.920;12.238;2023-01-06T04:50:09;4.80;;;1.70;;
21000;SDS011;10658;50.920;12.238;2023-01-06T04:54:11;3.95;;;1.65;;
21000;SDS011;10658;50.920;12.238;2023-01-06T04:58:13;2.65;;;2.10;;
21000;SDS011;10658;50.920;12.238;2023-01-06T05:02:14;2.00;;;1.73;;
21000;SDS011;10658;50.920;12.238;2023-01-06T05:06:16;4.85;;;2.13;;
21000;SDS011;10658;50.920;12.238;2023-01-06T05:10:18;2.22;;;1.67;;
21000;SDS011;10658;50.920;12.238;2023-01-06T05:14:20;1.85;;;1.20;;
21000;SDS011;10658;50.920;12.238;2023-01-06T05:18:21;2.35;;;1.50;;
21000;SDS011;10658;50.920;12.238;2023-01-06T05:22:23;1.83;;;1.50;;
21000;SDS011;10658;50.920;12.238;2023-01-06T05:26:24;3.00;;;1.92;;
21000;SDS011;10658;50.920;12.238;2023-01-06T05:30:27;4.75;;;2.22;;
21000;SDS011;10658;50.920;12.238;2023-01-06T05:34:29;2.80;;;1.80;;
21000;SDS011;10658;50.920;12.238;2023-01-06T05:38:31;2.38;;;1.65;;
21000;SDS011;10658;50.920;12.238;2023-01-06T05:42:33;1.48;;;1.30;;
21000;SDS011;10658;50.920;12.238;2023-01-06T05:46:34;1.60;;;1.33;;
21000;SDS011;10658;50.920;12.238;2023-01-06T05:50:35;2.47;;;1.35;;
21000;SDS011;10658;50.920;12.238;2023-01-06T05:54:37;4.70;;;1.83;;
21000;SDS011;10658;50.920;12.238;2023-01-06T05:58:38;2.38;;;1.90;;
21000;SDS011;10658;50.920;12.238;2023-01-06T06:02:43;1.88;;;1.35;;
21000;SDS011;10658;50.920;12.238;2023-01-06T06:06:45;1.52;;;1.00;;
21000;SDS011;10658;50.920;12.238;2023-01-06T06:10:46;1.60;;;1.23;;
21000;SDS011;10658;50.920;12.238;2023-01-06T06:14:47;2.60;;;1.10;;
21000;SDS011;10658;50.920;12.238;2023-01-06T06:18:49;1.17;;;0.73;;
21000;SDS011;10658;50.920;12.238;2023-01-06T06:22:51;0.80;;;0.80;;
21000;SDS011;10658;50.920;12.238;2023-01-06T06:26:53;1.65;;;1.10;;
21000;SDS011;10658;50.920;12.238;2023-01-06T06:30:54;1.02;;;0.93;;
21000;SDS011;10658;50.920;12.238;2023-01-06T06:35:02;0.63;;;0.40;;
21000;SDS011;10658;50.920;12.238;2023-01-06T06:39:03;0.98;;;0.50;;
21000;SDS011;10658;50.920;12.238;2023-01-06T06:43:05;1.10;;;0.50;;
21000;SDS011;10658;50.920;12.238;2023-01-06T06:47:06;0.70;;;0.50;;
21000;SDS011;10658;50.920;12.238;2023-01-06T06:51:17;1.38;;;0.75;;
21000;SDS011;10658;50.920;12.238;2023-01-06T06:55:20;1.17;;;0.90;;
21000;SDS011;10658;50.920;12.238;2023-01-06T06:59:21;0.70;;;0.65;;
21000;SDS011;10658;50.920;12.238;2023-01-06T07:03:22;1.23;;;0.95;;
21000;SDS011;10658;50.920;12.238;2023-01-06T07:07:24;1.98;;;0.90;;
21000;SDS011;10658;50.920;12.238;2023-01-06T07:11:25;2.05;;;1.25;;
21000;SDS011;10658;50.920;12.238;2023-01-06T07:15:27;2.47;;;1.23;;
21000;SDS011;10658;50.920;12.238;2023-01-06T07:19:28;1.40;;;1.10;;
21000;SDS011;10658;50.920;12.238;2023-01-06T07:23:29;2.13;;;1.30;;
21000;SDS011;10658;50.920;12.238;2023-01-06T07:27:31;2.00;;;1.48;;
21000;SDS011;10658;50.920;12.238;2023-01-06T07:31:33;4.22;;;2.45;;
21000;SDS011;10658;50.920;12.238;2023-01-06T07:35:34;3.45;;;2.10;;
21000;SDS011;10658;50.920;12.238;2023-01-06T07:39:36;3.17;;;2.28;;
21000;SDS011;10658;50.920;12.238;2023-01-06T07:43:37;3.05;;;2.13;;
21000;SDS011;10658;50.920;12.238;2023-01-06T07:47:39;1.95;;;1.75;;
21000;SDS011;10658;50.920;12.238;2023-01-06T07:51:40;2.60;;;1.77;;
21000;SDS011;10658;50.920;12.238;2023-01-06T07:55:42;4.55;;;2.08;;
21000;SDS011;10658;50.920;12.238;2023-01-06T07:59:51;2.15;;;1.58;;
21000;SDS011;10658;50.920;12.238;2023-01-06T08:03:53;3.30;;;1.90;;
21000;SDS011;10658;50.920;12.238;2023-01-06T08:07:54;3.58;;;2.03;;
21000;SDS011;10658;50.920;12.238;2023-01-06T08:11:56;2.97;;;2.00;;
21000;SDS011;10658;50.920;12.238;2023-01-06T08:15:59;2.67;;;1.60;;
21000;SDS011;10658;50.920;12.238;2023-01-06T08:20:03;2.35;;;1.75;;
21000;SDS011;10658;50.920;12.238;2023-01-06T08:24:06;1.77;;;1.35;;
21000;SDS011;10658;50.920;12.238;2023-01-06T08:28:07;3.00;;;2.10;;
21000;SDS011;10658;50.920;12.238;2023-01-06T08:32:09;1.67;;;1.30;;
21000;SDS011;10658;50.920;12.238;2023-01-06T08:36:12;1.92;;;1.40;;
21000;SDS011;10658;50.920;12.238;2023-01-06T08:40:14;1.35;;;1.20;;
21000;SDS011;10658;50.920;12.238;2023-01-06T08:44:15;1.65;;;1.30;;
21000;SDS011;10658;50.920;12.238;2023-01-06T08:48:19;1.90;;;1.63;;
21000;SDS011;10658;50.920;12.238;2023-01-06T08:52:21;1.75;;;1.33;;
21000;SDS011;10658;50.920;12.238;2023-01-06T08:56:23;2.17;;;1.52;;
21000;SDS011;10658;50.920;12.238;2023-01-06T09:00:26;3.15;;;1.30;;
21000;SDS011;10658;50.920;12.238;2023-01-06T09:04:28;2.45;;;1.35;;
21000;SDS011;10658;50.920;12.238;2023-01-06T09:08:30;5.97;;;1.15;;
21000;SDS011;10658;50.920;12.238;2023-01-06T09:12:31;2.42;;;1.60;;
21000;SDS011;10658;50.920;12.238;2023-01-06T09:16:35;0.95;;;0.95;;
21000;SDS011;10658;50.920;12.238;2023-01-06T09:20:36;2.28;;;1.60;;
21000;SDS011;10658;50.920;12.238;2023-01-06T09:24:37;4.72;;;1.85;;
21000;SDS011;10658;50.920;12.238;2023-01-06T09:28:39;2.00;;;1.40;;
21000;SDS011;10658;50.920;12.238;2023-01-06T09:32:42;2.88;;;1.90;;
21000;SDS011;10658;50.920;12.238;2023-01-06T09:36:44;3.38;;;2.40;;
21000;SDS011;10658;50.920;12.238;2023-01-06T09:40:56;1.67;;;1.10;;
21000;SDS011;10658;50.920;12.238;2023-01-06T09:53:43;1.67;;;0.70;;
21000;SDS011;10658;50.920;12.238;2023-01-06T09:57:51;2.30;;;1.67;;
21000;SDS011;10658;50.920;12.238;2023-01-06T10:02:08;4.25;;;2.90;;
21000;SDS011;10658;50.920;12.238;2023-01-06T10:19:14;0.50;;;0.50;;
21000;SDS011;10658;50.920;12.238;2023-01-06T10:27:33;2.33;;;0.82;;
21000;SDS011;10658;50.920;12.238;2023-01-06T10:31:36;1.27;;;0.80;;
21000;SDS011;10658;50.920;12.238;2023-01-06T10:35:43;0.47;;;0.47;;
21000;SDS011;10658;50.920;12.238;2023-01-06T10:39:45;1.02;;;0.50;;
21000;SDS011;10658;50.920;12.238;2023-01-06T10:43:51;0.63;;;0.50;;
21000;SDS011;10658;50.920;12.238;2023-01-06T10:47:52;0.40;;;0.40;;
21000;SDS011;10658;50.920;12.238;2023-01-06T10:51:55;0.28;;;0.28;;
21000;SDS011;10658;50.920;12.238;2023-01-06T10:55:59;0.50;;;0.50;;
21000;SDS011;10658;50.920;12.238;2023-01-06T11:00:25;1.05;;;0.77;;
21000;SDS011;10658;50.920;12.238;2023-01-06T11:04:26;0.60;;;0.55;;
21000;SDS011;10658;50.920;12.238;2023-01-06T11:08:27;1.98;;;1.15;;
21000;SDS011;10658;50.920;12.238;2023-01-06T11:12:29;1.90;;;1.02;;
21000;SDS011;10658;50.920;12.238;2023-01-06T11:16:32;1.67;;;1.13;;
21000;SDS011;10658;50.920;12.238;2023-01-06T11:20:35;1.65;;;0.75;;
21000;SDS011;10658;50.920;12.238;2023-01-06T11:24:47;1.02;;;0.50;;
21000;SDS011;10658;50.920;12.238;2023-01-06T11:28:54;1.92;;;0.70;;
21000;SDS011;10658;50.920;12.238;2023-01-06T11:32:55;0.50;;;0.50;;
21000;SDS011;10658;50.920;12.238;2023-01-06T11:36:57;2.65;;;0.50;;
21000;SDS011;10658;50.920;12.238;2023-01-06T11:40:59;0.40;;;0.40;;
21000;SDS011;10658;50.920;12.238;2023-01-06T11:45:27;0.43;;;0.43;;
21000;SDS011;10658;50.920;12.238;2023-01-06T11:49:34;0.88;;;0.50;;
21000;SDS011;10658;50.920;12.238;2023-01-06T11:53:53;1.08;;;0.45;;
21000;SDS011;10658;50.920;12.238;2023-01-06T12:02:02;0.40;;;0.28;;
21000;SDS011;10658;50.920;12.238;2023-01-06T12:10:14;0.10;;;0.10;;
21000;SDS011;10658;50.920;12.238;2023-01-06T12:14:22;0.30;;;0.30;;
21000;SDS011;10658;50.920;12.238;2023-01-06T12:18:35;0.40;;;0.40;;
21000;SDS011;10658;50.920;12.238;2023-01-06T12:26:54;0.57;;;0.40;;
21000;SDS011;10658;50.920;12.238;2023-01-06T12:31:01;0.50;;;0.50;;
21000;SDS011;10658;50.920;12.238;2023-01-06T12:35:25;0.43;;;0.43;;
21000;SDS011;10658;50.920;12.238;2023-01-06T12:39:31;0.50;;;0.50;;
21000;SDS011;10658;50.920;12.238;2023-01-06T12:43:54;2.03;;;0.60;;
21000;SDS011;10658;50.920;12.238;2023-01-06T12:48:10;0.57;;;0.50;;
21000;SDS011;10658;50.920;12.238;2023-01-06T12:52:24;3.25;;;0.85;;
21000;SDS011;10658;50.920;12.238;2023-01-06T13:09:52;1.08;;;0.95;;
21000;SDS011;10658;50.920;12.238;2023-01-06T13:13:57;0.80;;;0.77;;
21000;SDS011;10658;50.920;12.238;2023-01-06T13:18:26;0.95;;;0.80;;
21000;SDS011;10658;50.920;12.238;2023-01-06T13:35:57;0.60;;;0.60;;
21000;SDS011;10658;50.920;12.238;2023-01-06T13:40:29;0.90;;;0.90;;
21000;SDS011;10658;50.920;12.238;2023-01-06T13:44:35;1.95;;;0.60;;
21000;SDS011;10658;50.920;12.238;2023-01-06T13:48:41;1.27;;;0.85;;
21000;SDS011;10658;50.920;12.238;2023-01-06T13:52:45;1.65;;;0.52;;
21000;SDS011;10658;50.920;12.238;2023-01-06T13:56:50;3.92;;;2.42;;
21000;SDS011;10658;50.920;12.238;2023-01-06T14:09:45;1.75;;;0.20;;
21000;SDS011;10658;50.920;12.238;2023-01-06T14:13:49;1.50;;;0.43;;
21000;SDS011;10658;50.920;12.238;2023-01-06T14:17:53;5.50;;;3.08;;
21000;SDS011;10658;50.920;12.238;2023-01-06T14:22:18;1.40;;;0.85;;
21000;SDS011;10658;50.920;12.238;2023-01-06T14:26:19;3.33;;;1.17;;
21000;SDS011;10658;50.920;12.238;2023-01-06T14:30:23;2.25;;;1.67;;
21000;SDS011;10658;50.920;12.238;2023-01-06T14:34:24;5.40;;;2.45;;
21000;SDS011;10658;50.920;12.238;2023-01-06T14:38:31;2.63;;;1.35;;
21000;SDS011;10658;50.920;12.238;2023-01-06T14:42:42;1.95;;;1.42;;
21000;SDS011;10658;50.920;12.238;2023-01-06T14:46:49;4.65;;;2.33;;
21000;SDS011;10658;50.920;12.238;2023-01-06T14:50:53;12.80;;;6.00;;
21000;SDS011;10658;50.920;12.238;2023-01-06T14:54:58;5.90;;;3.17;;
21000;SDS011;10658;50.920;12.238;2023-01-06T14:59:08;9.02;;;4.45;;
21000;SDS011;10658;50.920;12.238;2023-01-06T15:03:18;6.60;;;3.85;;
21000;SDS011;10658;50.920;12.238;2023-01-06T15:07:21;10.18;;;4.88;;
21000;SDS011;10658;50.920;12.238;2023-01-06T15:11:24;7.07;;;2.30;;
21000;SDS011;10658;50.920;12.238;2023-01-06T15:15:31;6.68;;;3.22;;
21000;SDS011;10658;50.920;12.238;2023-01-06T15:19:34;5.60;;;2.97;;
21000;SDS011;10658;50.920;12.238;2023-01-06T15:23:43;6.80;;;3.42;;
21000;SDS011;10658;50.920;12.238;2023-01-06T15:27:47;5.60;;;3.05;;
21000;SDS011;10658;50.920;12.238;2023-01-06T15:31:50;3.78;;;2.25;;
21000;SDS011;10658;50.920;12.238;2023-01-06T15:35:52;3.55;;;2.70;;
21000;SDS011;10658;50.920;12.238;2023-01-06T15:39:54;6.10;;;3.38;;
21000;SDS011;10658;50.920;12.238;2023-01-06T15:43:55;3.65;;;1.48;;
21000;SDS011;10658;50.920;12.238;2023-01-06T15:47:58;3.83;;;2.10;;
21000;SDS011;10658;50.920;12.238;2023-01-06T15:52:25;5.95;;;2.85;;
21000;SDS011;10658;50.920;12.238;2023-01-06T15:56:38;4.28;;;2.10;;
21000;SDS011;10658;50.920;12.238;2023-01-06T16:00:49;5.95;;;3.58;;
21000;SDS011;10658;50.920;12.238;2023-01-06T16:04:58;4.00;;;2.72;;
21000;SDS011;10658;50.920;12.238;2023-01-06T16:13:22;3.45;;;2.80;;
21000;SDS011;10658;50.920;12.238;2023-01-06T16:17:32;2.58;;;2.03;;
21000;SDS011;10658;50.920;12.238;2023-01-06T16:21:35;2.28;;;1.50;;
21000;SDS011;10658;50.920;12.238;2023-01-06T16:25:36;1.50;;;1.30;;
21000;SDS011;10658;50.920;12.238;2023-01-06T16:29:38;1.55;;;1.00;;
21000;SDS011;10658;50.920;12.238;2023-01-06T16:33:44;2.17;;;1.35;;
21000;SDS011;10658;50.920;12.238;2023-01-06T16:37:45;1.23;;;1.13;;
21000;SDS011;10658;50.920;12.238;2023-01-06T16:46:00;0.90;;;0.68;;
21000;SDS011;10658;50.920;12.238;2023-01-06T16:54:39;6.68;;;3.30;;
21000;SDS011;10658;50.920;12.238;2023-01-06T16:58:41;4.07;;;2.00;;
21000;SDS011;10658;50.920;12.238;2023-01-06T17:02:42;1.30;;;0.80;;
21000;SDS011;10658;50.920;12.238;2023-01-06T17:06:43;0.77;;;0.75;;
21000;SDS011;10658;50.920;12.238;2023-01-06T17:10:45;4.43;;;2.65;;
21000;SDS011;10658;50.920;12.238;2023-01-06T17:14:46;1.92;;;1.40;;
21000;SDS011;10658;50.920;12.238;2023-01-06T17:23:21;3.45;;;2.45;;
21000;SDS011;10658;50.920;12.238;2023-01-06T17:27:23;3.47;;;1.85;;
21000;SDS011;10658;50.920;12.238;2023-01-06T17:31:30;5.70;;;3.65;;
21000;SDS011;10658;50.920;12.238;2023-01-06T17:35:34;3.53;;;2.47;;
21000;SDS011;10658;50.920;12.238;2023-01-06T17:39:37;5.22;;;3.25;;
21000;SDS011;10658;50.920;12.238;2023-01-06T17:43:40;4.85;;;3.25;;
21000;SDS011;10658;50.920;12.238;2023-01-06T17:47:43;11.10;;;6.30;;
21000;SDS011;10658;50.920;12.238;2023-01-06T17:51:46;16.27;;;10.43;;
21000;SDS011;10658;50.920;12.238;2023-01-06T17:55:48;10.07;;;6.47;;
21000;SDS011;10658;50.920;12.238;2023-01-06T17:59:54;11.25;;;6.43;;
21000;SDS011;10658;50.920;12.238;2023-01-06T18:03:56;7.90;;;4.30;;
21000;SDS011;10658;50.920;12.238;2023-01-06T18:12:09;7.47;;;5.88;;
21000;SDS011;10658;50.920;12.238;2023-01-06T18:16:28;2.55;;;2.17;;
21000;SDS011;10658;50.920;12.238;2023-01-06T18:20:31;4.18;;;2.95;;
21000;SDS011;10658;50.920;12.238;2023-01-06T18:24:35;2.58;;;1.40;;
21000;SDS011;10658;50.920;12.238;2023-01-06T18:28:37;0.75;;;0.65;;
21000;SDS011;10658;50.920;12.238;2023-01-06T18:32:39;1.30;;;1.13;;
21000;SDS011;10658;50.920;12.238;2023-01-06T18:36:45;1.77;;;1.10;;
21000;SDS011;10658;50.920;12.238;2023-01-06T18:40:47;1.40;;;0.80;;
21000;SDS011;10658;50.920;12.238;2023-01-06T18:44:49;0.80;;;0.70;;
21000;SDS011;10658;50.920;12.238;2023-01-06T18:48:55;0.90;;;0.90;;
21000;SDS011;10658;50.920;12.238;2023-01-06T18:52:58;3.25;;;2.03;;
21000;SDS011;10658;50.920;12.238;2023-01-06T18:57:27;3.42;;;1.70;;
21000;SDS011;10658;50.920;12.238;2023-01-06T19:05:43;5.80;;;2.35;;
21000;SDS011;10658;50.920;12.238;2023-01-06T19:09:46;3.58;;;2.08;;
21000;SDS011;10658;50.920;12.238;2023-01-06T19:13:52;2.47;;;2.00;;
21000;SDS011;10658;50.920;12.238;2023-01-06T19:17:55;2.45;;;2.00;;
21000;SDS011;10658;50.920;12.238;2023-01-06T19:26:35;2.47;;;1.55;;
21000;SDS011;10658;50.920;12.238;2023-01-06T19:30:41;2.97;;;1.75;;
21000;SDS011;10658;50.920;12.238;2023-01-06T19:34:44;4.72;;;2.08;;
21000;SDS011;10658;50.920;12.238;2023-01-06T19:38:45;2.35;;;1.95;;
21000;SDS011;10658;50.920;12.238;2023-01-06T19:42:46;3.65;;;1.70;;
21000;SDS011;10658;50.920;12.238;2023-01-06T19:46:48;1.90;;;1.55;;
21000;SDS011;10658;50.920;12.238;2023-01-06T19:50:55;2.95;;;1.50;;
21000;SDS011;10658;50.920;12.238;2023-01-06T19:55:25;3.10;;;2.10;;
21000;SDS011;10658;50.920;12.238;2023-01-06T19:59:32;6.05;;;4.00;;
21000;SDS011;10658;50.920;12.238;2023-01-06T20:03:36;4.75;;;3.83;;
21000;SDS011;10658;50.920;12.238;2023-01-06T20:07:42;2.47;;;1.98;;
21000;SDS011;10658;50.920;12.238;2023-01-06T20:11:43;3.50;;;2.70;;
21000;SDS011;10658;50.920;12.238;2023-01-06T20:15:44;3.75;;;1.77;;
21000;SDS011;10658;50.920;12.238;2023-01-06T20:19:47;2.13;;;1.70;;
21000;SDS011;10658;50.920;12.238;2023-01-06T20:23:48;2.65;;;1.70;;
21000;SDS011;10658;50.920;12.238;2023-01-06T20:27:49;1.60;;;1.50;;
21000;SDS011;10658;50.920;12.238;2023-01-06T20:31:50;4.82;;;1.63;;
21000;SDS011;10658;50.920;12.238;2023-01-06T20:35:51;3.00;;;2.13;;
21000;SDS011;10658;50.920;12.238;2023-01-06T20:39:53;3.13;;;2.20;;
21000;SDS011;10658;50.920;12.238;2023-01-06T20:43:55;2.47;;;1.77;;
21000;SDS011;10658;50.920;12.238;2023-01-06T20:47:56;3.55;;;2.58;;
21000;SDS011;10658;50.920;12.238;2023-01-06T20:51:57;5.10;;;2.83;;
21000;SDS011;10658;50.920;12.238;2023-01-06T20:55:59;4.13;;;2.80;;
21000;SDS011;10658;50.920;12.238;2023-01-06T21:00:00;2.03;;;1.75;;
21000;SDS011;10658;50.920;12.238;2023-01-06T21:04:03;2.55;;;2.05;;
21000;SDS011;10658;50.920;12.238;2023-01-06T21:08:04;2.17;;;1.88;;
21000;SDS011;10658;50.920;12.238;2023-01-06T21:12:06;2.20;;;2.00;;
21000;SDS011;10658;50.920;12.238;2023-01-06T21:16:08;2.95;;;2.25;;
21000;SDS011;10658;50.920;12.238;2023-01-06T21:20:09;2.50;;;2.00;;
21000;SDS011;10658;50.920;12.238;2023-01-06T21:24:11;4.32;;;2.85;;
21000;SDS011;10658;50.920;12.238;2023-01-06T21:28:13;3.25;;;2.30;;
21000;SDS011;10658;50.920;12.238;2023-01-06T21:32:14;3.03;;;2.67;;
21000;SDS011;10658;50.920;12.238;2023-01-06T21:36:15;4.72;;;2.40;;
21000;SDS011;10658;50.920;12.238;2023-01-06T21:40:16;3.83;;;2.90;;
21000;SDS011;10658;50.920;12.238;2023-01-06T21:44:18;3.33;;;2.45;;
21000;SDS011;10658;50.920;12.238;2023-01-06T21:48:18;4.45;;;3.28;;
21000;SDS011;10658;50.920;12.238;2023-01-06T21:52:23;2.60;;;2.40;;
21000;SDS011;10658;50.920;12.238;2023-01-06T21:56:24;3.17;;;2.70;;
21000;SDS011;10658;50.920;12.238;2023-01-06T22:00:26;3.97;;;3.05;;
21000;SDS011;10658;50.920;12.238;2023-01-06T22:04:27;3.35;;;2.63;;
21000;SDS011;10658;50.920;12.238;2023-01-06T22:08:29;3.05;;;2.47;;
21000;SDS011;10658;50.920;12.238;2023-01-06T22:12:32;3.47;;;3.10;;
21000;SDS011;10658;50.920;12.238;2023-01-06T22:16:33;3.97;;;3.28;;
21000;SDS011;10658;50.920;12.238;2023-01-06T22:20:37;3.58;;;2.60;;
21000;SDS011;10658;50.920;12.238;2023-01-06T22:24:39;3.72;;;2.63;;
21000;SDS011;10658;50.920;12.238;2023-01-06T22:28:41;5.35;;;3.58;;
21000;SDS011;10658;50.920;12.238;2023-01-06T22:32:43;4.53;;;2.55;;
21000;SDS011;10658;50.920;12.238;2023-01-06T22:36:45;4.05;;;3.17;;
21000;SDS011;10658;50.920;12.238;2023-01-06T22:40:46;4.18;;;3.22;;
21000;SDS011;10658;50.920;12.238;2023-01-06T22:44:47;3.03;;;2.55;;
21000;SDS011;10658;50.920;12.238;2023-01-06T22:48:49;3.55;;;2.47;;
21000;SDS011;10658;50.920;12.238;2023-01-06T22:52:50;4.00;;;2.95;;
21000;SDS011;10658;50.920;12.238;2023-01-06T22:56:51;2.50;;;2.17;;
21000;SDS011;10658;50.920;12.238;2023-01-06T23:00:53;3.45;;;2.55;;
21000;SDS011;10658;50.920;12.238;2023-01-06T23:04:54;2.50;;;2.22;;
21000;SDS011;10658;50.920;12.238;2023-01-06T23:08:55;5.25;;;2.85;;
21000;SDS011;10658;50.920;12.238;2023-01-06T23:12:56;4.55;;;2.90;;
21000;SDS011;10658;50.920;12.238;2023-01-06T23:16:58;3.47;;;2.88;;
21000;SDS011;10658;50.920;12.238;2023-01-06T23:21:01;3.80;;;2.53;;
21000;SDS011;10658;50.920;12.238;2023-01-06T23:25:04;3.08;;;2.60;;
21000;SDS011;10658;50.920;12.238;2023-01-06T23:29:06;2.85;;;2.25;;
21000;SDS011;10658;50.920;12.238;2023-01-06T23:33:08;3.28;;;2.15;;
21000;SDS011;10658;50.920;12.238;2023-01-06T23:37:12;4.72;;;2.55;;
21000;SDS011;10658;50.920;12.238;2023-01-06T23:41:16;4.75;;;2.17;;
21000;SDS011;10658;50.920;12.238;2023-01-06T23:45:20;3.13;;;2.05;;
21000;SDS011;10658;50.920;12.238;2023-01-06T23:49:21;3.03;;;1.88;;
21000;SDS011;10658;50.920;12.238;2023-01-06T23:53:23;2.13;;;1.92;;
21000;SDS011;10658;50.920;12.238;2023-01-06T23:57:24;2.38;;;2.10;;
